Lone Oak, Texas
Current Conditions -  °F | °C
As of 10:35 PM on Thursday 20 Nov 2014 (Local Time) from KGVT Reporting Station
Overcast Overcast  
Wind Chill: 61°   Ceiling: 2600
Heat Index: 61°   Visibility: 10mi
Dew Point: 55°   Wind: 9mph
Humidity: 82%   Direction: 150°SSE
Pressure: 30.08"   Gusts: NA
Location:  33°N, 95.94°W
Report Text: KGVT 210435Z AUTO 15008KT 10SM OVC026 16/13 A3008 RMK AO2
Loading
Personal Weather Stations






























Interactive Weather Map New forecast layout! Learn more

10-Day Weather Forecast

Advertisements
Track Severe Weather on mobile